createdAt,value
2018-12-15T00:00:01.749Z,2.23
2018-12-15T00:02:34.136Z,2.03
2018-12-15T00:05:07.643Z,2.70
2018-12-15T00:07:38.748Z,2.20
2018-12-15T00:10:09.931Z,2.70
2018-12-15T00:12:40.861Z,2.13
2018-12-15T00:15:12.216Z,1.90
2018-12-15T00:17:43.171Z,2.30
2018-12-15T00:20:13.946Z,1.80
2018-12-15T00:22:44.796Z,2.13
2018-12-15T00:25:15.580Z,2.70
2018-12-15T00:27:46.372Z,1.60
2018-12-15T00:30:17.200Z,2.17
2018-12-15T00:32:47.936Z,1.57
2018-12-15T00:35:18.731Z,1.67
2018-12-15T00:37:49.441Z,2.13
2018-12-15T00:40:20.751Z,2.20
2018-12-15T00:42:51.746Z,2.07
2018-12-15T00:45:22.781Z,2.20
2018-12-15T00:47:53.570Z,2.97
2018-12-15T00:50:24.376Z,2.13
2018-12-15T00:52:55.692Z,2.27
2018-12-15T00:55:26.531Z,1.97
2018-12-15T00:57:57.191Z,1.80
2018-12-15T01:00:28.054Z,2.03
2018-12-15T01:02:58.851Z,1.80
2018-12-15T01:05:29.756Z,1.90
2018-12-15T01:08:00.872Z,1.57
2018-12-15T01:10:31.848Z,2.00
2018-12-15T01:13:02.572Z,2.07
2018-12-15T01:15:38.374Z,1.87
2018-12-15T01:18:09.087Z,2.10
2018-12-15T01:20:39.989Z,2.33
2018-12-15T01:23:10.882Z,2.08
2018-12-15T01:25:41.859Z,2.20
2018-12-15T01:28:12.606Z,2.37
2018-12-15T01:30:43.397Z,2.00
2018-12-15T01:33:14.137Z,1.50
2018-12-15T01:35:44.972Z,1.63
2018-12-15T01:38:15.807Z,1.90
2018-12-15T01:40:47.030Z,1.87
2018-12-15T01:43:17.987Z,1.70
2018-12-15T01:45:49.438Z,1.70
2018-12-15T01:48:20.358Z,2.17
2018-12-15T01:50:51.237Z,1.70
2018-12-15T01:53:21.949Z,1.40
2018-12-15T01:55:52.747Z,1.57
2018-12-15T01:58:23.448Z,1.90
2018-12-15T02:00:54.427Z,1.83
2018-12-15T02:03:25.127Z,1.80
2018-12-15T02:05:56.183Z,1.77
2018-12-15T02:08:27.047Z,1.80
2018-12-15T02:11:00.237Z,1.60
2018-12-15T02:13:30.988Z,1.70
2018-12-15T02:16:02.128Z,1.50
2018-12-15T02:18:32.968Z,1.90
2018-12-15T02:21:03.747Z,2.03
2018-12-15T02:23:34.522Z,1.90
2018-12-15T02:26:05.555Z,1.98
2018-12-15T02:28:36.318Z,1.90
2018-12-15T02:31:07.093Z,1.42
2018-12-15T02:33:37.828Z,1.60
2018-12-15T02:36:09.032Z,1.80
2018-12-15T02:38:39.747Z,1.83
2018-12-15T02:41:10.868Z,2.22
2018-12-15T02:43:41.687Z,1.53
2018-12-15T02:46:12.547Z,2.00
2018-12-15T02:48:43.203Z,1.57
2018-12-15T02:51:14.047Z,1.73
2018-12-15T02:53:44.852Z,1.83
2018-12-15T02:56:15.589Z,1.85
2018-12-15T02:58:46.256Z,2.40
2018-12-15T03:01:17.008Z,1.70
2018-12-15T03:03:47.812Z,1.93
2018-12-15T03:06:18.528Z,1.80
2018-12-15T03:08:49.407Z,1.40
2018-12-15T03:11:20.147Z,1.80
2018-12-15T03:13:50.955Z,1.97
2018-12-15T03:16:21.867Z,1.43
2018-12-15T03:18:52.639Z,1.80
2018-12-15T03:21:23.482Z,1.70
2018-12-15T03:23:54.298Z,1.60
2018-12-15T03:26:25.228Z,1.80
2018-12-15T03:28:56.072Z,1.92
2018-12-15T03:31:26.783Z,1.97
2018-12-15T03:33:57.537Z,2.17
2018-12-15T03:36:29.347Z,1.83
2018-12-15T03:39:01.322Z,1.77
2018-12-15T03:41:34.282Z,1.87
2018-12-15T03:44:05.208Z,1.45
2018-12-15T03:46:36.022Z,2.10
2018-12-15T03:49:06.662Z,1.70
2018-12-15T03:51:37.453Z,1.90
2018-12-15T03:54:08.242Z,2.80
2018-12-15T03:56:39.048Z,1.77
2018-12-15T03:59:09.802Z,1.93
2018-12-15T04:01:40.514Z,1.80
2018-12-15T04:04:11.306Z,1.97
2018-12-15T04:06:43.211Z,1.73
2018-12-15T04:09:13.948Z,1.53
2018-12-15T04:11:44.593Z,2.23
2018-12-15T04:14:15.289Z,1.77
2018-12-15T04:16:47.069Z,2.13
2018-12-15T04:19:17.843Z,1.87
2018-12-15T04:21:48.579Z,2.40
2018-12-15T04:24:19.258Z,2.00
2018-12-15T04:26:49.968Z,1.47
2018-12-15T04:29:22.879Z,1.70
2018-12-15T04:31:53.668Z,1.50
2018-12-15T04:34:24.359Z,1.53
2018-12-15T04:36:55.218Z,2.20
2018-12-15T04:39:26.033Z,2.17
2018-12-15T04:41:57.227Z,1.73
2018-12-15T04:44:28.119Z,1.70
2018-12-15T04:46:59.429Z,2.10
2018-12-15T04:49:30.183Z,1.53
2018-12-15T04:52:01.023Z,1.20
2018-12-15T04:54:31.888Z,1.97
2018-12-15T04:57:02.650Z,1.30
2018-12-15T04:59:33.513Z,1.50
2018-12-15T05:02:04.544Z,1.77
2018-12-15T05:04:35.408Z,1.60
2018-12-15T05:07:07.413Z,1.70
2018-12-15T05:09:38.292Z,1.83
2018-12-15T05:12:09.203Z,2.00
2018-12-15T05:14:40.087Z,1.60
2018-12-15T05:17:11.148Z,1.90
2018-12-15T05:19:42.033Z,1.50
2018-12-15T05:22:13.240Z,1.60
2018-12-15T05:24:44.533Z,1.87
2018-12-15T05:27:15.483Z,1.60
2018-12-15T05:29:46.372Z,1.37
2018-12-15T05:32:17.373Z,1.95
2018-12-15T05:34:48.248Z,3.10
2018-12-15T05:37:19.323Z,1.63
2018-12-15T05:39:50.150Z,1.83
2018-12-15T05:42:21.698Z,1.53
2018-12-15T05:44:52.483Z,1.60
2018-12-15T05:47:23.453Z,1.70
2018-12-15T05:49:54.253Z,1.60
2018-12-15T05:52:25.134Z,2.10
2018-12-15T05:54:55.958Z,2.17
2018-12-15T05:57:26.809Z,1.80
2018-12-15T05:59:57.543Z,1.73
2018-12-15T06:02:28.963Z,1.70
2018-12-15T06:05:00.149Z,1.33
2018-12-15T06:07:30.943Z,2.13
2018-12-15T06:10:02.253Z,1.80
2018-12-15T06:12:33.156Z,1.40
2018-12-15T06:15:03.864Z,1.80
2018-12-15T06:17:34.965Z,1.97
2018-12-15T06:20:06.226Z,1.90
2018-12-15T06:22:37.169Z,2.20
2018-12-15T06:25:08.090Z,1.87
2018-12-15T06:27:39.236Z,1.73
2018-12-15T06:30:10.339Z,2.33
2018-12-15T06:32:41.229Z,1.67
2018-12-15T06:35:12.140Z,1.80
2018-12-15T06:37:43.023Z,2.10
2018-12-15T06:40:13.855Z,1.82
2018-12-15T06:42:45.354Z,1.37
2018-12-15T06:45:16.396Z,1.80
2018-12-15T06:47:47.779Z,1.87
2018-12-15T06:50:18.875Z,1.67
2018-12-15T06:52:50.033Z,1.80
2018-12-15T06:55:21.033Z,1.53
2018-12-15T06:57:52.016Z,1.57
2018-12-15T07:00:23.074Z,1.73
2018-12-15T07:02:54.283Z,2.20
2018-12-15T07:05:25.303Z,1.65
2018-12-15T07:07:56.204Z,2.03
2018-12-15T07:10:27.103Z,1.70
2018-12-15T07:12:58.158Z,1.53
2018-12-15T07:15:28.945Z,1.43
2018-12-15T07:18:00.223Z,1.70
2018-12-15T07:20:31.143Z,1.50
2018-12-15T07:23:02.169Z,2.10
2018-12-15T07:25:33.672Z,1.57
2018-12-15T07:28:04.707Z,1.80
2018-12-15T07:30:35.954Z,1.63
2018-12-15T07:33:06.913Z,1.90
2018-12-15T07:35:38.152Z,1.60
2018-12-15T07:38:09.506Z,2.08
2018-12-15T07:40:40.628Z,1.73
2018-12-15T07:43:12.268Z,1.93
2018-12-15T07:45:43.022Z,1.80
2018-12-15T07:48:16.156Z,2.35
2018-12-15T07:50:47.488Z,1.83
2018-12-15T07:53:18.318Z,1.60
2018-12-15T07:55:49.381Z,1.80
2018-12-15T07:58:20.508Z,1.60
2018-12-15T08:00:52.108Z,1.93
2018-12-15T08:03:22.888Z,2.43
2018-12-15T08:05:53.774Z,1.70
2018-12-15T08:08:25.294Z,1.87
2018-12-15T08:11:00.878Z,1.93
2018-12-15T08:13:33.998Z,2.22
2018-12-15T08:16:04.883Z,1.77
2018-12-15T08:18:35.853Z,2.00
2018-12-15T08:21:06.853Z,1.80
2018-12-15T08:23:38.043Z,1.62
2018-12-15T08:26:08.882Z,2.17
2018-12-15T08:28:39.722Z,1.97
2018-12-15T08:31:10.693Z,2.17
2018-12-15T08:33:41.733Z,1.60
2018-12-15T08:36:12.643Z,2.03
2018-12-15T08:38:43.673Z,1.77
2018-12-15T08:41:14.593Z,2.00
2018-12-15T08:43:45.931Z,1.63
2018-12-15T08:46:18.193Z,2.13
2018-12-15T08:48:49.263Z,2.80
2018-12-15T08:51:20.647Z,2.00
2018-12-15T08:53:51.703Z,1.67
2018-12-15T08:56:22.657Z,2.53
2018-12-15T08:58:53.692Z,2.50
2018-12-15T09:01:24.552Z,4.60
2018-12-15T09:03:55.454Z,2.00
2018-12-15T09:06:26.463Z,1.63
2018-12-15T09:08:57.467Z,1.70
2018-12-15T09:11:28.398Z,1.70
2018-12-15T09:13:59.363Z,1.57
2018-12-15T09:16:30.282Z,2.23
2018-12-15T09:19:01.307Z,1.73
2018-12-15T09:21:32.242Z,2.87
2018-12-15T09:24:03.377Z,2.30
2018-12-15T09:26:34.382Z,2.47
2018-12-15T09:29:06.436Z,1.97
2018-12-15T09:31:37.562Z,1.97
2018-12-15T09:34:08.492Z,2.03
2018-12-15T09:36:39.462Z,1.90
2018-12-15T09:39:10.571Z,1.83
2018-12-15T09:41:41.662Z,2.50
2018-12-15T09:44:13.166Z,1.67
2018-12-15T09:46:44.222Z,1.70
2018-12-15T09:49:17.963Z,2.67
2018-12-15T09:51:48.256Z,2.33
2018-12-15T09:54:19.177Z,1.50
2018-12-15T09:56:49.887Z,2.23
2018-12-15T09:59:20.746Z,1.93
2018-12-15T10:01:52.141Z,2.30
2018-12-15T10:04:23.158Z,1.73
2018-12-15T10:06:54.142Z,1.40
2018-12-15T10:09:25.291Z,1.77
2018-12-15T10:11:56.492Z,2.20
2018-12-15T10:14:27.471Z,1.50
2018-12-15T10:16:58.311Z,1.93
2018-12-15T10:19:29.407Z,1.90
2018-12-15T10:22:00.511Z,1.80
2018-12-15T10:24:31.642Z,2.20
2018-12-15T10:27:02.617Z,1.53
2018-12-15T10:29:38.547Z,1.83
2018-12-15T10:32:14.418Z,1.80
2018-12-15T10:34:45.826Z,2.73
2018-12-15T10:37:17.102Z,2.13
2018-12-15T10:39:48.377Z,1.80
2018-12-15T10:42:19.596Z,1.67
2018-12-15T10:44:51.212Z,2.22
2018-12-15T10:47:22.176Z,2.00
2018-12-15T10:49:55.496Z,1.87
2018-12-15T10:52:28.527Z,1.83
2018-12-15T10:54:59.547Z,1.80
2018-12-15T10:57:30.591Z,2.00
2018-12-15T11:00:01.617Z,1.33
2018-12-15T11:02:32.697Z,2.47
2018-12-15T11:05:04.782Z,1.70
2018-12-15T11:07:35.694Z,1.80
2018-12-15T11:10:07.001Z,1.80
2018-12-15T11:12:37.861Z,1.97
2018-12-15T11:15:09.702Z,1.60
2018-12-15T11:17:40.643Z,2.27
2018-12-15T11:20:11.806Z,2.43
2018-12-15T11:22:42.667Z,1.80
2018-12-15T11:25:14.922Z,1.70
2018-12-15T11:27:45.807Z,1.77
2018-12-15T11:30:16.857Z,3.67
2018-12-15T11:32:47.748Z,1.83
2018-12-15T11:35:18.897Z,1.70
2018-12-15T11:37:50.297Z,2.27
2018-12-15T11:40:21.312Z,1.87
2018-12-15T11:42:52.127Z,1.80
2018-12-15T11:45:23.972Z,1.60
2018-12-15T11:47:54.982Z,1.97
2018-12-15T11:50:26.079Z,1.80
2018-12-15T11:52:56.411Z,2.00
2018-12-15T11:55:27.427Z,1.70
2018-12-15T11:57:58.682Z,2.10
2018-12-15T12:00:30.094Z,2.17
2018-12-15T12:03:01.328Z,2.00
2018-12-15T12:05:32.279Z,1.80
2018-12-15T12:08:03.233Z,2.63
2018-12-15T12:10:34.207Z,2.63
2018-12-15T12:13:05.003Z,1.70
2018-12-15T12:15:36.292Z,2.33
2018-12-15T12:18:07.218Z,3.07
2018-12-15T12:20:38.377Z,2.73
2018-12-15T12:23:09.722Z,1.90
2018-12-15T12:25:42.872Z,2.07
2018-12-15T12:28:15.957Z,2.20
2018-12-15T12:30:46.937Z,3.87
2018-12-15T12:33:17.779Z,2.02
2018-12-15T12:35:48.742Z,2.50
2018-12-15T12:38:20.750Z,1.98
2018-12-15T12:40:51.832Z,1.90
2018-12-15T12:43:22.912Z,1.93
2018-12-15T12:45:54.202Z,2.00
2018-12-15T12:48:25.273Z,2.10
2018-12-15T12:50:56.407Z,2.13
2018-12-15T12:53:27.353Z,1.63
2018-12-15T12:55:58.368Z,2.30
2018-12-15T12:58:29.362Z,2.93
2018-12-15T13:01:00.567Z,2.30
2018-12-15T13:03:31.775Z,3.37
2018-12-15T13:06:03.097Z,2.17
2018-12-15T13:08:34.338Z,2.13
2018-12-15T13:11:05.582Z,2.17
2018-12-15T13:13:36.919Z,2.23
2018-12-15T13:16:08.458Z,2.80
2018-12-15T13:18:39.693Z,2.37
2018-12-15T13:21:11.493Z,2.20
2018-12-15T13:23:42.757Z,2.70
2018-12-15T13:26:14.236Z,2.40
2018-12-15T13:28:45.507Z,2.07
2018-12-15T13:31:16.919Z,1.80
2018-12-15T13:33:48.213Z,2.40
2018-12-15T13:36:20.539Z,2.20
2018-12-15T13:38:51.797Z,2.00
2018-12-15T13:41:23.276Z,2.67
2018-12-15T13:43:54.598Z,2.87
2018-12-15T13:46:26.467Z,2.53
2018-12-15T13:48:57.747Z,2.80
2018-12-15T13:51:29.357Z,2.70
2018-12-15T13:54:00.622Z,3.23
2018-12-15T13:56:32.172Z,2.40
2018-12-15T13:59:03.647Z,2.30
2018-12-15T14:01:35.037Z,3.07
2018-12-15T14:04:06.397Z,2.30
2018-12-15T14:06:37.858Z,2.70
2018-12-15T14:09:09.972Z,2.83
2018-12-15T14:11:41.323Z,3.00
2018-12-15T14:14:12.567Z,2.57
2018-12-15T14:16:44.072Z,3.10
2018-12-15T14:19:15.571Z,3.10
2018-12-15T14:21:47.212Z,2.90
2018-12-15T14:24:18.047Z,3.23
2018-12-15T14:26:49.062Z,2.97
2018-12-15T14:29:20.347Z,2.20
2018-12-15T14:31:51.792Z,3.43
2018-12-15T14:34:23.327Z,3.10
2018-12-15T14:36:54.867Z,3.63
2018-12-15T14:39:26.230Z,3.17
2018-12-15T14:41:57.676Z,3.40
2018-12-15T14:44:28.988Z,2.97
2018-12-15T14:47:00.552Z,3.27
2018-12-15T14:49:31.828Z,3.23
2018-12-15T14:52:05.308Z,3.00
2018-12-15T14:54:36.505Z,2.97
2018-12-15T14:57:07.817Z,3.63
2018-12-15T14:59:39.121Z,3.33
2018-12-15T15:02:10.587Z,3.80
2018-12-15T15:04:41.828Z,3.20
2018-12-15T15:07:13.602Z,3.08
2018-12-15T15:09:44.867Z,3.23
2018-12-15T15:12:16.232Z,2.90
2018-12-15T15:14:47.537Z,2.43
2018-12-15T15:17:18.972Z,2.65
2018-12-15T15:19:50.147Z,3.10
2018-12-15T15:22:21.706Z,2.80
2018-12-15T15:24:52.982Z,2.30
2018-12-15T15:27:24.286Z,2.90
2018-12-15T15:29:55.387Z,2.80
2018-12-15T15:32:26.642Z,2.60
2018-12-15T15:34:57.807Z,3.00
2018-12-15T15:37:29.042Z,2.90
2018-12-15T15:40:00.232Z,3.53
2018-12-15T15:42:31.697Z,2.43
2018-12-15T15:45:03.067Z,2.83
2018-12-15T15:47:35.057Z,2.47
2018-12-15T15:50:07.246Z,2.47
2018-12-15T15:52:38.846Z,3.00
2018-12-15T15:55:10.540Z,2.90
2018-12-15T15:57:42.157Z,3.17
2018-12-15T16:00:14.357Z,3.40
2018-12-15T16:02:45.701Z,2.70
2018-12-15T16:05:16.606Z,3.57
2018-12-15T16:07:47.652Z,3.87
2018-12-15T16:10:18.461Z,3.33
2018-12-15T16:12:49.492Z,3.67
2018-12-15T16:15:20.987Z,3.77
2018-12-15T16:17:52.378Z,3.70
2018-12-15T16:20:23.737Z,3.90
2018-12-15T16:22:54.737Z,3.60
2018-12-15T16:25:24.906Z,4.05
2018-12-15T16:27:55.802Z,3.10
2018-12-15T16:30:26.858Z,3.50
2018-12-15T16:32:58.287Z,3.80
2018-12-15T16:35:29.567Z,3.92
2018-12-15T16:38:01.113Z,3.80
2018-12-15T16:40:31.956Z,3.92
2018-12-15T16:43:03.047Z,3.40
2018-12-15T16:45:34.252Z,3.90
2018-12-15T16:48:06.037Z,3.37
2018-12-15T16:50:36.932Z,4.13
2018-12-15T16:53:07.972Z,3.50
2018-12-15T16:55:39.377Z,3.67
2018-12-15T16:58:10.752Z,3.47
2018-12-15T17:00:41.822Z,3.90
2018-12-15T17:03:13.085Z,3.50
2018-12-15T17:05:43.912Z,3.83
2018-12-15T17:08:15.397Z,3.97
2018-12-15T17:10:46.618Z,3.60
2018-12-15T17:13:17.602Z,3.73
2018-12-15T17:15:49.692Z,5.43
2018-12-15T17:18:20.922Z,4.10
2018-12-15T17:20:56.614Z,4.07
2018-12-15T17:23:25.298Z,3.83
2018-12-15T17:25:57.012Z,4.17
2018-12-15T17:28:29.032Z,4.63
2018-12-15T17:30:59.762Z,5.27
2018-12-15T17:33:31.097Z,3.97
2018-12-15T17:36:02.016Z,4.30
2018-12-15T17:38:33.341Z,4.43
2018-12-15T17:41:04.226Z,3.73
2018-12-15T17:43:37.440Z,3.60
2018-12-15T17:46:08.717Z,3.90
2018-12-15T17:48:42.352Z,4.17
2018-12-15T17:51:16.072Z,4.70
2018-12-15T17:53:47.255Z,5.10
2018-12-15T17:56:18.092Z,5.03
2018-12-15T17:58:51.043Z,5.00
2018-12-15T18:01:22.367Z,4.10
2018-12-15T18:03:53.457Z,5.93
2018-12-15T18:06:24.857Z,5.13
2018-12-15T18:08:55.857Z,4.50
2018-12-15T18:11:26.782Z,4.67
2018-12-15T18:13:57.707Z,4.27
2018-12-15T18:16:28.472Z,4.57
2018-12-15T18:18:59.907Z,5.10
2018-12-15T18:21:30.927Z,4.40
2018-12-15T18:24:01.862Z,5.20
2018-12-15T18:26:32.522Z,5.10
2018-12-15T18:29:03.442Z,5.33
2018-12-15T18:31:34.312Z,5.15
2018-12-15T18:34:05.102Z,4.53
2018-12-15T18:36:36.057Z,6.27
2018-12-15T18:39:08.577Z,5.20
2018-12-15T18:41:41.857Z,4.33
2018-12-15T18:44:13.042Z,4.87
2018-12-15T18:46:43.857Z,4.90
2018-12-15T18:49:15.167Z,4.70
2018-12-15T18:51:46.232Z,4.63
2018-12-15T18:54:17.605Z,5.03
2018-12-15T18:56:48.548Z,4.00
2018-12-15T18:59:20.767Z,4.03
2018-12-15T19:01:51.791Z,4.80
2018-12-15T19:04:22.814Z,4.50
2018-12-15T19:06:53.844Z,5.53
2018-12-15T19:09:24.998Z,3.77
2018-12-15T19:11:55.939Z,3.67
2018-12-15T19:14:30.887Z,4.03
2018-12-15T19:17:02.162Z,4.43
2018-12-15T19:19:33.158Z,4.10
2018-12-15T19:22:04.062Z,3.90
2018-12-15T19:24:36.342Z,3.80
2018-12-15T19:27:07.603Z,4.37
2018-12-15T19:29:39.112Z,3.60
2018-12-15T19:32:10.405Z,4.17
2018-12-15T19:34:41.458Z,4.00
2018-12-15T19:37:13.797Z,4.27
2018-12-15T19:39:45.102Z,4.37
2018-12-15T19:42:16.207Z,3.87
2018-12-15T19:44:48.607Z,3.50
2018-12-15T19:47:20.907Z,4.27
2018-12-15T19:49:52.252Z,4.77
2018-12-15T19:52:23.217Z,4.10
2018-12-15T19:54:54.638Z,4.47
2018-12-15T19:57:40.057Z,5.37
2018-12-15T20:00:26.318Z,3.57
2018-12-15T20:03:02.487Z,5.33
2018-12-15T20:05:34.192Z,3.77
2018-12-15T20:08:05.707Z,5.17
2018-12-15T20:10:36.523Z,4.70
2018-12-15T20:13:08.582Z,4.77
2018-12-15T20:15:40.648Z,5.20
2018-12-15T20:18:11.582Z,4.53
2018-12-15T20:20:42.522Z,4.37
2018-12-15T20:23:13.472Z,4.43
2018-12-15T20:25:44.423Z,3.63
2018-12-15T20:28:15.511Z,4.07
2018-12-15T20:30:46.502Z,4.40
2018-12-15T20:33:17.237Z,5.17
2018-12-15T20:35:48.107Z,3.43
2018-12-15T20:38:19.868Z,4.57
2018-12-15T20:40:50.727Z,4.30
2018-12-15T20:43:22.632Z,4.67
2018-12-15T20:45:53.716Z,4.47
2018-12-15T20:48:24.576Z,5.43
2018-12-15T20:50:55.767Z,4.90
2018-12-15T20:53:27.178Z,4.85
2018-12-15T20:55:58.232Z,5.20
2018-12-15T20:58:29.011Z,4.30
2018-12-15T21:01:01.048Z,4.20
2018-12-15T21:03:32.022Z,3.97
2018-12-15T21:06:02.817Z,3.77
2018-12-15T21:08:34.615Z,4.80
2018-12-15T21:11:05.702Z,4.33
2018-12-15T21:13:36.435Z,4.13
2018-12-15T21:16:07.492Z,4.07
2018-12-15T21:18:38.457Z,3.55
2018-12-15T21:21:09.483Z,3.97
2018-12-15T21:23:40.337Z,5.03
2018-12-15T21:26:12.523Z,4.07
2018-12-15T21:28:43.412Z,4.03
2018-12-15T21:31:14.313Z,3.80
2018-12-15T21:33:45.213Z,4.10
2018-12-15T21:36:16.163Z,4.23
2018-12-15T21:38:47.003Z,4.33
2018-12-15T21:41:17.909Z,3.90
2018-12-15T21:43:48.734Z,3.90
2018-12-15T21:46:19.778Z,3.83
2018-12-15T21:48:50.735Z,4.03
2018-12-15T21:51:22.237Z,3.43
2018-12-15T21:53:53.132Z,4.60
2018-12-15T21:56:24.272Z,4.13
2018-12-15T21:58:55.203Z,4.30
2018-12-15T22:01:26.142Z,3.60
2018-12-15T22:03:56.983Z,4.00
2018-12-15T22:06:27.923Z,3.67
2018-12-15T22:08:58.723Z,3.83
2018-12-15T22:11:29.642Z,4.42
2018-12-15T22:14:00.503Z,4.57
2018-12-15T22:16:31.810Z,3.37
2018-12-15T22:19:03.923Z,4.13
2018-12-15T22:21:34.874Z,4.47
2018-12-15T22:24:05.713Z,4.27
2018-12-15T22:26:36.762Z,4.83
2018-12-15T22:29:07.638Z,3.50
2018-12-15T22:31:38.698Z,4.10
2018-12-15T22:34:09.512Z,4.27
2018-12-15T22:36:40.526Z,3.80
2018-12-15T22:39:11.339Z,3.23
2018-12-15T22:41:42.322Z,4.50
2018-12-15T22:44:14.414Z,3.33
2018-12-15T22:46:45.502Z,3.17
2018-12-15T22:49:16.331Z,3.43
2018-12-15T22:51:47.747Z,3.40
2018-12-15T22:54:18.667Z,3.90
2018-12-15T22:56:49.737Z,3.93
2018-12-15T22:59:20.567Z,3.53
2018-12-15T23:01:51.457Z,3.00
2018-12-15T23:04:22.912Z,3.50
2018-12-15T23:06:53.822Z,4.17
2018-12-15T23:09:24.707Z,3.00
2018-12-15T23:11:55.612Z,4.03
2018-12-15T23:14:28.486Z,3.52
2018-12-15T23:16:59.352Z,4.17
2018-12-15T23:19:30.231Z,4.08
2018-12-15T23:22:01.206Z,3.50
2018-12-15T23:24:33.151Z,4.13
2018-12-15T23:27:04.301Z,3.20
2018-12-15T23:29:36.251Z,3.93
2018-12-15T23:32:07.212Z,3.50
2018-12-15T23:34:38.022Z,3.30
2018-12-15T23:37:08.993Z,3.40
2018-12-15T23:39:39.932Z,4.10
2018-12-15T23:42:10.912Z,3.40
2018-12-15T23:44:42.006Z,3.40
2018-12-15T23:47:13.022Z,4.27
2018-12-15T23:49:44.046Z,4.10
2018-12-15T23:52:15.442Z,4.07
2018-12-15T23:54:46.266Z,4.00
2018-12-15T23:57:17.318Z,4.53
2018-12-15T23:59:48.201Z,3.80
